sensor_id;sensor_type;location;lat;lon;timestamp;P1;durP1;ratioP1;P2;durP2;ratioP2
17761;SDS011;9005;48.838;10.112;2024-01-25T00:00:16;7.43;;;2.78;;
17761;SDS011;9005;48.838;10.112;2024-01-25T00:02:43;7.22;;;2.58;;
17761;SDS011;9005;48.838;10.112;2024-01-25T00:05:10;9.18;;;2.65;;
17761;SDS011;9005;48.838;10.112;2024-01-25T00:07:45;6.53;;;2.75;;
17761;SDS011;9005;48.838;10.112;2024-01-25T00:10:13;8.95;;;2.65;;
17761;SDS011;9005;48.838;10.112;2024-01-25T00:12:39;7.25;;;2.60;;
17761;SDS011;9005;48.838;10.112;2024-01-25T00:15:06;7.65;;;2.20;;
17761;SDS011;9005;48.838;10.112;2024-01-25T00:17:33;11.77;;;3.03;;
17761;SDS011;9005;48.838;10.112;2024-01-25T00:20:00;8.88;;;3.75;;
17761;SDS011;9005;48.838;10.112;2024-01-25T00:22:27;8.25;;;3.05;;
17761;SDS011;9005;48.838;10.112;2024-01-25T00:24:55;5.32;;;2.50;;
17761;SDS011;9005;48.838;10.112;2024-01-25T00:27:23;6.78;;;2.70;;
17761;SDS011;9005;48.838;10.112;2024-01-25T00:29:50;5.40;;;2.60;;
17761;SDS011;9005;48.838;10.112;2024-01-25T00:32:17;7.63;;;3.38;;
17761;SDS011;9005;48.838;10.112;2024-01-25T00:34:44;6.35;;;3.03;;
17761;SDS011;9005;48.838;10.112;2024-01-25T00:37:11;7.70;;;2.58;;
17761;SDS011;9005;48.838;10.112;2024-01-25T00:39:38;9.55;;;3.22;;
17761;SDS011;9005;48.838;10.112;2024-01-25T00:42:07;8.05;;;2.47;;
17761;SDS011;9005;48.838;10.112;2024-01-25T00:44:38;3.65;;;2.05;;
17761;SDS011;9005;48.838;10.112;2024-01-25T00:47:05;7.78;;;2.83;;
17761;SDS011;9005;48.838;10.112;2024-01-25T00:49:32;9.20;;;2.40;;
17761;SDS011;9005;48.838;10.112;2024-01-25T00:52:00;6.45;;;2.13;;
17761;SDS011;9005;48.838;10.112;2024-01-25T00:54:29;4.55;;;2.30;;
17761;SDS011;9005;48.838;10.112;2024-01-25T00:56:56;7.38;;;2.72;;
17761;SDS011;9005;48.838;10.112;2024-01-25T00:59:25;4.55;;;2.45;;
17761;SDS011;9005;48.838;10.112;2024-01-25T01:01:52;7.85;;;3.60;;
17761;SDS011;9005;48.838;10.112;2024-01-25T01:04:21;9.27;;;3.17;;
17761;SDS011;9005;48.838;10.112;2024-01-25T01:06:48;4.75;;;2.35;;
17761;SDS011;9005;48.838;10.112;2024-01-25T01:09:15;4.78;;;2.13;;
17761;SDS011;9005;48.838;10.112;2024-01-25T01:11:42;8.85;;;2.20;;
17761;SDS011;9005;48.838;10.112;2024-01-25T01:14:09;7.18;;;2.45;;
17761;SDS011;9005;48.838;10.112;2024-01-25T01:16:38;5.97;;;1.95;;
17761;SDS011;9005;48.838;10.112;2024-01-25T01:19:05;7.55;;;2.15;;
17761;SDS011;9005;48.838;10.112;2024-01-25T01:21:32;9.02;;;2.53;;
17761;SDS011;9005;48.838;10.112;2024-01-25T01:23:59;5.95;;;1.63;;
17761;SDS011;9005;48.838;10.112;2024-01-25T01:26:26;3.63;;;1.48;;
17761;SDS011;9005;48.838;10.112;2024-01-25T01:28:53;6.80;;;2.38;;
17761;SDS011;9005;48.838;10.112;2024-01-25T01:31:20;6.53;;;2.25;;
17761;SDS011;9005;48.838;10.112;2024-01-25T01:33:48;4.07;;;2.13;;
17761;SDS011;9005;48.838;10.112;2024-01-25T01:36:15;5.95;;;2.35;;
17761;SDS011;9005;48.838;10.112;2024-01-25T01:38:42;1.85;;;1.20;;
17761;SDS011;9005;48.838;10.112;2024-01-25T01:41:09;4.28;;;1.88;;
17761;SDS011;9005;48.838;10.112;2024-01-25T01:43:36;1.85;;;1.30;;
17761;SDS011;9005;48.838;10.112;2024-01-25T01:46:04;5.72;;;2.10;;
17761;SDS011;9005;48.838;10.112;2024-01-25T01:48:35;7.00;;;1.67;;
17761;SDS011;9005;48.838;10.112;2024-01-25T01:51:04;7.78;;;1.50;;
17761;SDS011;9005;48.838;10.112;2024-01-25T01:53:31;5.50;;;2.90;;
17761;SDS011;9005;48.838;10.112;2024-01-25T01:55:59;9.25;;;2.40;;
17761;SDS011;9005;48.838;10.112;2024-01-25T01:58:26;5.80;;;2.38;;
17761;SDS011;9005;48.838;10.112;2024-01-25T02:00:54;5.50;;;1.60;;
17761;SDS011;9005;48.838;10.112;2024-01-25T02:03:22;8.13;;;2.38;;
17761;SDS011;9005;48.838;10.112;2024-01-25T02:05:48;3.92;;;1.73;;
17761;SDS011;9005;48.838;10.112;2024-01-25T02:08:16;12.35;;;2.55;;
17761;SDS011;9005;48.838;10.112;2024-01-25T02:10:43;5.53;;;1.85;;
17761;SDS011;9005;48.838;10.112;2024-01-25T02:13:10;7.00;;;2.35;;
17761;SDS011;9005;48.838;10.112;2024-01-25T02:15:37;3.92;;;1.77;;
17761;SDS011;9005;48.838;10.112;2024-01-25T02:18:03;1.38;;;1.02;;
17761;SDS011;9005;48.838;10.112;2024-01-25T02:20:31;1.75;;;1.45;;
17761;SDS011;9005;48.838;10.112;2024-01-25T02:22:59;5.00;;;1.63;;
17761;SDS011;9005;48.838;10.112;2024-01-25T02:25:26;3.40;;;1.60;;
17761;SDS011;9005;48.838;10.112;2024-01-25T02:27:53;8.18;;;2.45;;
17761;SDS011;9005;48.838;10.112;2024-01-25T02:30:19;8.45;;;2.33;;
17761;SDS011;9005;48.838;10.112;2024-01-25T02:32:46;5.53;;;1.58;;
17761;SDS011;9005;48.838;10.112;2024-01-25T02:35:13;6.45;;;1.60;;
17761;SDS011;9005;48.838;10.112;2024-01-25T02:37:39;6.00;;;1.75;;
17761;SDS011;9005;48.838;10.112;2024-01-25T02:40:08;6.68;;;1.98;;
17761;SDS011;9005;48.838;10.112;2024-01-25T02:42:36;9.93;;;2.10;;
17761;SDS011;9005;48.838;10.112;2024-01-25T02:45:03;3.53;;;1.30;;
17761;SDS011;9005;48.838;10.112;2024-01-25T02:47:30;4.53;;;1.70;;
17761;SDS011;9005;48.838;10.112;2024-01-25T02:49:56;2.72;;;1.15;;
17761;SDS011;9005;48.838;10.112;2024-01-25T02:52:23;6.47;;;1.92;;
17761;SDS011;9005;48.838;10.112;2024-01-25T02:54:50;1.55;;;1.10;;
17761;SDS011;9005;48.838;10.112;2024-01-25T02:57:18;5.32;;;1.75;;
17761;SDS011;9005;48.838;10.112;2024-01-25T02:59:45;1.58;;;0.98;;
17761;SDS011;9005;48.838;10.112;2024-01-25T03:02:12;6.30;;;1.90;;
17761;SDS011;9005;48.838;10.112;2024-01-25T03:04:38;8.82;;;1.98;;
17761;SDS011;9005;48.838;10.112;2024-01-25T03:07:05;6.72;;;1.83;;
17761;SDS011;9005;48.838;10.112;2024-01-25T03:09:32;1.50;;;0.70;;
17761;SDS011;9005;48.838;10.112;2024-01-25T03:11:59;11.27;;;2.63;;
17761;SDS011;9005;48.838;10.112;2024-01-25T03:14:27;6.40;;;2.10;;
17761;SDS011;9005;48.838;10.112;2024-01-25T03:16:53;7.07;;;2.05;;
17761;SDS011;9005;48.838;10.112;2024-01-25T03:19:22;3.80;;;1.58;;
17761;SDS011;9005;48.838;10.112;2024-01-25T03:21:50;4.07;;;1.42;;
17761;SDS011;9005;48.838;10.112;2024-01-25T03:24:17;4.07;;;1.23;;
17761;SDS011;9005;48.838;10.112;2024-01-25T03:26:44;3.75;;;1.23;;
17761;SDS011;9005;48.838;10.112;2024-01-25T03:29:11;2.35;;;1.58;;
17761;SDS011;9005;48.838;10.112;2024-01-25T03:31:39;7.13;;;1.92;;
17761;SDS011;9005;48.838;10.112;2024-01-25T03:34:06;7.75;;;2.17;;
17761;SDS011;9005;48.838;10.112;2024-01-25T03:36:32;5.60;;;1.88;;
17761;SDS011;9005;48.838;10.112;2024-01-25T03:39:00;4.65;;;1.45;;
17761;SDS011;9005;48.838;10.112;2024-01-25T03:41:28;5.50;;;1.40;;
17761;SDS011;9005;48.838;10.112;2024-01-25T03:43:55;7.88;;;2.60;;
17761;SDS011;9005;48.838;10.112;2024-01-25T03:46:21;8.30;;;3.00;;
17761;SDS011;9005;48.838;10.112;2024-01-25T03:48:49;2.30;;;1.42;;
17761;SDS011;9005;48.838;10.112;2024-01-25T03:51:16;2.20;;;0.70;;
17761;SDS011;9005;48.838;10.112;2024-01-25T03:53:45;3.85;;;1.30;;
17761;SDS011;9005;48.838;10.112;2024-01-25T03:56:11;4.75;;;1.48;;
17761;SDS011;9005;48.838;10.112;2024-01-25T03:58:39;3.47;;;1.38;;
17761;SDS011;9005;48.838;10.112;2024-01-25T04:01:05;3.15;;;1.63;;
17761;SDS011;9005;48.838;10.112;2024-01-25T04:03:32;3.60;;;1.58;;
17761;SDS011;9005;48.838;10.112;2024-01-25T04:06:01;2.15;;;0.90;;
17761;SDS011;9005;48.838;10.112;2024-01-25T04:08:27;4.75;;;1.20;;
17761;SDS011;9005;48.838;10.112;2024-01-25T04:10:54;4.05;;;1.42;;
17761;SDS011;9005;48.838;10.112;2024-01-25T04:13:21;5.80;;;2.03;;
17761;SDS011;9005;48.838;10.112;2024-01-25T04:15:48;1.27;;;0.88;;
17761;SDS011;9005;48.838;10.112;2024-01-25T04:18:14;4.28;;;1.27;;
17761;SDS011;9005;48.838;10.112;2024-01-25T04:20:41;4.45;;;1.70;;
17761;SDS011;9005;48.838;10.112;2024-01-25T04:23:10;2.63;;;0.85;;
17761;SDS011;9005;48.838;10.112;2024-01-25T04:25:37;5.22;;;1.85;;
17761;SDS011;9005;48.838;10.112;2024-01-25T04:28:04;3.42;;;1.27;;
17761;SDS011;9005;48.838;10.112;2024-01-25T04:30:31;4.22;;;1.48;;
17761;SDS011;9005;48.838;10.112;2024-01-25T04:32:58;2.47;;;1.02;;
17761;SDS011;9005;48.838;10.112;2024-01-25T04:35:25;4.47;;;1.13;;
17761;SDS011;9005;48.838;10.112;2024-01-25T04:37:51;5.65;;;1.70;;
17761;SDS011;9005;48.838;10.112;2024-01-25T04:40:19;1.83;;;1.23;;
17761;SDS011;9005;48.838;10.112;2024-01-25T04:42:46;1.95;;;1.13;;
17761;SDS011;9005;48.838;10.112;2024-01-25T04:45:13;7.78;;;2.40;;
17761;SDS011;9005;48.838;10.112;2024-01-25T04:47:39;5.63;;;2.20;;
17761;SDS011;9005;48.838;10.112;2024-01-25T04:50:06;1.73;;;0.85;;
17761;SDS011;9005;48.838;10.112;2024-01-25T04:52:34;7.03;;;2.20;;
17761;SDS011;9005;48.838;10.112;2024-01-25T04:55:00;2.28;;;0.70;;
17761;SDS011;9005;48.838;10.112;2024-01-25T04:57:29;7.70;;;1.33;;
17761;SDS011;9005;48.838;10.112;2024-01-25T04:59:55;6.68;;;1.67;;
17761;SDS011;9005;48.838;10.112;2024-01-25T05:02:22;8.38;;;2.25;;
17761;SDS011;9005;48.838;10.112;2024-01-25T05:04:49;3.88;;;1.08;;
17761;SDS011;9005;48.838;10.112;2024-01-25T05:07:15;4.55;;;2.20;;
17761;SDS011;9005;48.838;10.112;2024-01-25T05:09:42;5.05;;;1.38;;
17761;SDS011;9005;48.838;10.112;2024-01-25T05:12:09;3.70;;;1.83;;
17761;SDS011;9005;48.838;10.112;2024-01-25T05:14:37;5.20;;;1.58;;
17761;SDS011;9005;48.838;10.112;2024-01-25T05:17:04;7.93;;;1.80;;
17761;SDS011;9005;48.838;10.112;2024-01-25T05:19:30;3.85;;;1.40;;
17761;SDS011;9005;48.838;10.112;2024-01-25T05:21:57;4.05;;;1.40;;
17761;SDS011;9005;48.838;10.112;2024-01-25T05:24:24;3.60;;;1.42;;
17761;SDS011;9005;48.838;10.112;2024-01-25T05:26:50;4.05;;;1.38;;
17761;SDS011;9005;48.838;10.112;2024-01-25T05:29:17;3.17;;;1.30;;
17761;SDS011;9005;48.838;10.112;2024-01-25T05:31:45;8.50;;;1.58;;
17761;SDS011;9005;48.838;10.112;2024-01-25T05:34:13;4.30;;;1.88;;
17761;SDS011;9005;48.838;10.112;2024-01-25T05:36:40;7.53;;;1.40;;
17761;SDS011;9005;48.838;10.112;2024-01-25T05:39:07;7.55;;;1.73;;
17761;SDS011;9005;48.838;10.112;2024-01-25T05:41:34;5.53;;;1.48;;
17761;SDS011;9005;48.838;10.112;2024-01-25T05:44:01;7.45;;;1.60;;
17761;SDS011;9005;48.838;10.112;2024-01-25T05:46:28;7.43;;;2.00;;
17761;SDS011;9005;48.838;10.112;2024-01-25T05:48:56;6.22;;;1.42;;
17761;SDS011;9005;48.838;10.112;2024-01-25T05:51:23;7.85;;;2.08;;
17761;SDS011;9005;48.838;10.112;2024-01-25T05:53:50;4.95;;;1.98;;
17761;SDS011;9005;48.838;10.112;2024-01-25T05:56:17;2.50;;;0.88;;
17761;SDS011;9005;48.838;10.112;2024-01-25T05:58:43;6.60;;;1.85;;
17761;SDS011;9005;48.838;10.112;2024-01-25T06:01:10;5.43;;;1.00;;
17761;SDS011;9005;48.838;10.112;2024-01-25T06:03:37;4.72;;;1.65;;
17761;SDS011;9005;48.838;10.112;2024-01-25T06:06:05;8.07;;;2.00;;
17761;SDS011;9005;48.838;10.112;2024-01-25T06:08:32;7.05;;;1.63;;
17761;SDS011;9005;48.838;10.112;2024-01-25T06:10:59;6.93;;;2.05;;
17761;SDS011;9005;48.838;10.112;2024-01-25T06:13:26;9.40;;;2.05;;
17761;SDS011;9005;48.838;10.112;2024-01-25T06:15:52;7.43;;;2.05;;
17761;SDS011;9005;48.838;10.112;2024-01-25T06:18:19;3.85;;;1.65;;
17761;SDS011;9005;48.838;10.112;2024-01-25T06:20:46;4.35;;;1.50;;
17761;SDS011;9005;48.838;10.112;2024-01-25T06:23:14;7.40;;;2.72;;
17761;SDS011;9005;48.838;10.112;2024-01-25T06:25:41;2.25;;;0.70;;
17761;SDS011;9005;48.838;10.112;2024-01-25T06:28:07;6.47;;;1.73;;
17761;SDS011;9005;48.838;10.112;2024-01-25T06:30:34;6.18;;;1.65;;
17761;SDS011;9005;48.838;10.112;2024-01-25T06:33:01;5.88;;;1.58;;
17761;SDS011;9005;48.838;10.112;2024-01-25T06:35:28;5.43;;;1.25;;
17761;SDS011;9005;48.838;10.112;2024-01-25T06:37:55;2.13;;;1.13;;
17761;SDS011;9005;48.838;10.112;2024-01-25T06:40:23;6.40;;;1.88;;
17761;SDS011;9005;48.838;10.112;2024-01-25T06:42:50;10.43;;;2.38;;
17761;SDS011;9005;48.838;10.112;2024-01-25T06:45:17;5.47;;;1.45;;
17761;SDS011;9005;48.838;10.112;2024-01-25T06:47:43;3.03;;;1.42;;
17761;SDS011;9005;48.838;10.112;2024-01-25T06:50:11;8.65;;;2.38;;
17761;SDS011;9005;48.838;10.112;2024-01-25T06:52:38;7.95;;;2.10;;
17761;SDS011;9005;48.838;10.112;2024-01-25T06:55:05;6.15;;;2.20;;
17761;SDS011;9005;48.838;10.112;2024-01-25T06:57:33;8.88;;;2.83;;
17761;SDS011;9005;48.838;10.112;2024-01-25T07:00:00;9.95;;;2.88;;
17761;SDS011;9005;48.838;10.112;2024-01-25T07:02:26;6.18;;;2.55;;
17761;SDS011;9005;48.838;10.112;2024-01-25T07:04:53;6.35;;;2.28;;
17761;SDS011;9005;48.838;10.112;2024-01-25T07:07:20;7.72;;;2.53;;
17761;SDS011;9005;48.838;10.112;2024-01-25T07:09:47;6.35;;;2.47;;
17761;SDS011;9005;48.838;10.112;2024-01-25T07:12:14;7.43;;;2.38;;
17761;SDS011;9005;48.838;10.112;2024-01-25T07:14:42;11.75;;;2.72;;
17761;SDS011;9005;48.838;10.112;2024-01-25T07:17:08;6.32;;;2.30;;
17761;SDS011;9005;48.838;10.112;2024-01-25T07:19:35;9.30;;;2.35;;
17761;SDS011;9005;48.838;10.112;2024-01-25T07:22:03;10.27;;;3.05;;
17761;SDS011;9005;48.838;10.112;2024-01-25T07:24:30;11.25;;;3.20;;
17761;SDS011;9005;48.838;10.112;2024-01-25T07:26:56;8.48;;;2.72;;
17761;SDS011;9005;48.838;10.112;2024-01-25T07:29:23;10.55;;;2.97;;
17761;SDS011;9005;48.838;10.112;2024-01-25T07:31:51;8.18;;;3.15;;
17761;SDS011;9005;48.838;10.112;2024-01-25T07:34:18;10.82;;;3.08;;
17761;SDS011;9005;48.838;10.112;2024-01-25T07:36:45;8.82;;;2.90;;
17761;SDS011;9005;48.838;10.112;2024-01-25T07:39:11;7.95;;;2.58;;
17761;SDS011;9005;48.838;10.112;2024-01-25T07:41:39;8.45;;;2.55;;
17761;SDS011;9005;48.838;10.112;2024-01-25T07:44:05;9.35;;;2.83;;
17761;SDS011;9005;48.838;10.112;2024-01-25T07:46:32;7.63;;;1.98;;
17761;SDS011;9005;48.838;10.112;2024-01-25T07:49:00;9.20;;;2.13;;
17761;SDS011;9005;48.838;10.112;2024-01-25T07:51:27;10.18;;;2.65;;
17761;SDS011;9005;48.838;10.112;2024-01-25T07:53:54;7.18;;;2.00;;
17761;SDS011;9005;48.838;10.112;2024-01-25T07:56:21;10.63;;;2.65;;
17761;SDS011;9005;48.838;10.112;2024-01-25T07:58:48;8.38;;;2.55;;
17761;SDS011;9005;48.838;10.112;2024-01-25T08:01:17;8.90;;;2.78;;
17761;SDS011;9005;48.838;10.112;2024-01-25T08:03:44;8.35;;;2.88;;
17761;SDS011;9005;48.838;10.112;2024-01-25T08:06:12;6.95;;;2.03;;
17761;SDS011;9005;48.838;10.112;2024-01-25T08:08:40;7.47;;;2.55;;
17761;SDS011;9005;48.838;10.112;2024-01-25T08:11:07;7.00;;;3.03;;
17761;SDS011;9005;48.838;10.112;2024-01-25T08:13:33;5.97;;;2.58;;
17761;SDS011;9005;48.838;10.112;2024-01-25T08:16:00;6.82;;;2.42;;
17761;SDS011;9005;48.838;10.112;2024-01-25T08:18:27;8.02;;;2.97;;
17761;SDS011;9005;48.838;10.112;2024-01-25T08:20:55;7.38;;;2.05;;
17761;SDS011;9005;48.838;10.112;2024-01-25T08:23:23;8.05;;;3.10;;
17761;SDS011;9005;48.838;10.112;2024-01-25T08:25:50;4.88;;;2.42;;
17761;SDS011;9005;48.838;10.112;2024-01-25T08:28:16;7.25;;;2.70;;
17761;SDS011;9005;48.838;10.112;2024-01-25T08:30:43;9.52;;;2.97;;
17761;SDS011;9005;48.838;10.112;2024-01-25T08:33:10;8.05;;;2.95;;
17761;SDS011;9005;48.838;10.112;2024-01-25T08:35:37;9.18;;;3.58;;
17761;SDS011;9005;48.838;10.112;2024-01-25T08:38:05;5.97;;;2.50;;
17761;SDS011;9005;48.838;10.112;2024-01-25T08:40:33;5.63;;;2.38;;
17761;SDS011;9005;48.838;10.112;2024-01-25T08:43:00;8.45;;;2.47;;
17761;SDS011;9005;48.838;10.112;2024-01-25T08:45:27;8.13;;;2.95;;
17761;SDS011;9005;48.838;10.112;2024-01-25T08:47:54;8.23;;;2.50;;
17761;SDS011;9005;48.838;10.112;2024-01-25T08:50:21;7.38;;;2.92;;
17761;SDS011;9005;48.838;10.112;2024-01-25T08:52:47;9.23;;;2.95;;
17761;SDS011;9005;48.838;10.112;2024-01-25T08:55:14;6.95;;;2.83;;
17761;SDS011;9005;48.838;10.112;2024-01-25T08:57:42;7.55;;;3.03;;
17761;SDS011;9005;48.838;10.112;2024-01-25T09:00:09;6.53;;;2.50;;
17761;SDS011;9005;48.838;10.112;2024-01-25T09:02:36;5.95;;;2.42;;
17761;SDS011;9005;48.838;10.112;2024-01-25T09:05:04;8.43;;;2.65;;
17761;SDS011;9005;48.838;10.112;2024-01-25T09:07:31;5.97;;;2.35;;
17761;SDS011;9005;48.838;10.112;2024-01-25T09:09:58;8.30;;;2.90;;
17761;SDS011;9005;48.838;10.112;2024-01-25T09:12:25;5.47;;;2.92;;
17761;SDS011;9005;48.838;10.112;2024-01-25T09:14:53;7.68;;;3.35;;
17761;SDS011;9005;48.838;10.112;2024-01-25T09:17:20;6.32;;;2.92;;
17761;SDS011;9005;48.838;10.112;2024-01-25T09:19:47;7.68;;;3.03;;
17761;SDS011;9005;48.838;10.112;2024-01-25T09:22:14;7.20;;;3.20;;
17761;SDS011;9005;48.838;10.112;2024-01-25T09:24:42;7.90;;;2.90;;
17761;SDS011;9005;48.838;10.112;2024-01-25T09:27:09;8.18;;;3.20;;
17761;SDS011;9005;48.838;10.112;2024-01-25T09:29:35;5.63;;;2.67;;
17761;SDS011;9005;48.838;10.112;2024-01-25T09:32:05;7.20;;;2.83;;
17761;SDS011;9005;48.838;10.112;2024-01-25T09:34:32;9.85;;;3.17;;
17761;SDS011;9005;48.838;10.112;2024-01-25T09:36:59;6.90;;;3.58;;
17761;SDS011;9005;48.838;10.112;2024-01-25T09:39:27;6.80;;;2.60;;
17761;SDS011;9005;48.838;10.112;2024-01-25T09:41:54;5.30;;;3.00;;
17761;SDS011;9005;48.838;10.112;2024-01-25T09:44:20;5.82;;;3.13;;
17761;SDS011;9005;48.838;10.112;2024-01-25T09:46:47;7.28;;;2.83;;
17761;SDS011;9005;48.838;10.112;2024-01-25T09:49:15;6.07;;;2.88;;
17761;SDS011;9005;48.838;10.112;2024-01-25T09:51:43;7.25;;;3.03;;
17761;SDS011;9005;48.838;10.112;2024-01-25T09:54:10;6.25;;;2.92;;
17761;SDS011;9005;48.838;10.112;2024-01-25T09:56:36;8.27;;;2.97;;
17761;SDS011;9005;48.838;10.112;2024-01-25T09:59:07;7.90;;;2.97;;
17761;SDS011;9005;48.838;10.112;2024-01-25T10:01:34;6.43;;;2.72;;
17761;SDS011;9005;48.838;10.112;2024-01-25T10:04:01;7.95;;;2.95;;
17761;SDS011;9005;48.838;10.112;2024-01-25T10:06:33;7.13;;;2.97;;
17761;SDS011;9005;48.838;10.112;2024-01-25T10:09:00;8.55;;;2.33;;
17761;SDS011;9005;48.838;10.112;2024-01-25T10:11:27;6.63;;;3.00;;
17761;SDS011;9005;48.838;10.112;2024-01-25T10:14:01;7.90;;;2.65;;
17761;SDS011;9005;48.838;10.112;2024-01-25T10:16:28;6.47;;;2.63;;
17761;SDS011;9005;48.838;10.112;2024-01-25T10:18:56;9.65;;;3.15;;
17761;SDS011;9005;48.838;10.112;2024-01-25T10:21:23;6.95;;;2.60;;
17761;SDS011;9005;48.838;10.112;2024-01-25T10:23:53;5.93;;;2.88;;
17761;SDS011;9005;48.838;10.112;2024-01-25T10:26:23;8.95;;;3.08;;
17761;SDS011;9005;48.838;10.112;2024-01-25T10:28:52;7.38;;;3.40;;
17761;SDS011;9005;48.838;10.112;2024-01-25T10:31:19;7.55;;;2.95;;
17761;SDS011;9005;48.838;10.112;2024-01-25T10:33:49;10.85;;;3.67;;
17761;SDS011;9005;48.838;10.112;2024-01-25T10:36:18;6.65;;;2.58;;
17761;SDS011;9005;48.838;10.112;2024-01-25T10:38:47;8.55;;;3.13;;
17761;SDS011;9005;48.838;10.112;2024-01-25T10:41:17;6.90;;;2.72;;
17761;SDS011;9005;48.838;10.112;2024-01-25T10:43:45;7.25;;;3.00;;
17761;SDS011;9005;48.838;10.112;2024-01-25T10:46:12;13.20;;;3.78;;
17761;SDS011;9005;48.838;10.112;2024-01-25T10:48:38;7.75;;;3.42;;
17761;SDS011;9005;48.838;10.112;2024-01-25T10:51:06;10.38;;;3.13;;
17761;SDS011;9005;48.838;10.112;2024-01-25T10:53:34;8.77;;;2.75;;
17761;SDS011;9005;48.838;10.112;2024-01-25T10:56:02;7.88;;;3.53;;
17761;SDS011;9005;48.838;10.112;2024-01-25T10:58:31;7.72;;;2.97;;
17761;SDS011;9005;48.838;10.112;2024-01-25T11:01:00;7.60;;;3.35;;
17761;SDS011;9005;48.838;10.112;2024-01-25T11:03:28;6.90;;;3.30;;
17761;SDS011;9005;48.838;10.112;2024-01-25T11:06:05;6.88;;;2.85;;
17761;SDS011;9005;48.838;10.112;2024-01-25T11:08:33;8.60;;;2.60;;
17761;SDS011;9005;48.838;10.112;2024-01-25T11:11:03;7.00;;;3.35;;
17761;SDS011;9005;48.838;10.112;2024-01-25T11:13:33;3.35;;;2.15;;
17761;SDS011;9005;48.838;10.112;2024-01-25T11:16:10;6.85;;;3.30;;
17761;SDS011;9005;48.838;10.112;2024-01-25T11:18:46;9.10;;;3.28;;
17761;SDS011;9005;48.838;10.112;2024-01-25T11:21:21;6.70;;;3.30;;
17761;SDS011;9005;48.838;10.112;2024-01-25T11:23:48;5.88;;;2.85;;
17761;SDS011;9005;48.838;10.112;2024-01-25T11:26:24;8.93;;;2.83;;
17761;SDS011;9005;48.838;10.112;2024-01-25T11:28:53;6.03;;;2.95;;
17761;SDS011;9005;48.838;10.112;2024-01-25T11:31:20;6.35;;;2.83;;
17761;SDS011;9005;48.838;10.112;2024-01-25T11:33:48;6.47;;;2.90;;
17761;SDS011;9005;48.838;10.112;2024-01-25T11:36:16;5.85;;;2.40;;
17761;SDS011;9005;48.838;10.112;2024-01-25T11:38:46;7.43;;;2.90;;
17761;SDS011;9005;48.838;10.112;2024-01-25T11:41:12;9.75;;;3.25;;
17761;SDS011;9005;48.838;10.112;2024-01-25T11:43:40;6.28;;;2.85;;
17761;SDS011;9005;48.838;10.112;2024-01-25T11:46:08;7.13;;;3.15;;
17761;SDS011;9005;48.838;10.112;2024-01-25T11:48:38;5.10;;;2.40;;
17761;SDS011;9005;48.838;10.112;2024-01-25T11:51:05;6.72;;;2.67;;
17761;SDS011;9005;48.838;10.112;2024-01-25T11:53:32;5.47;;;2.78;;
17761;SDS011;9005;48.838;10.112;2024-01-25T11:55:59;6.07;;;2.88;;
17761;SDS011;9005;48.838;10.112;2024-01-25T11:58:26;8.18;;;3.53;;
17761;SDS011;9005;48.838;10.112;2024-01-25T12:00:53;6.45;;;3.00;;
17761;SDS011;9005;48.838;10.112;2024-01-25T12:03:21;7.30;;;2.95;;
17761;SDS011;9005;48.838;10.112;2024-01-25T12:05:49;7.13;;;2.50;;
17761;SDS011;9005;48.838;10.112;2024-01-25T12:08:16;5.60;;;2.60;;
17761;SDS011;9005;48.838;10.112;2024-01-25T12:10:43;7.70;;;3.30;;
17761;SDS011;9005;48.838;10.112;2024-01-25T12:13:10;7.05;;;2.78;;
17761;SDS011;9005;48.838;10.112;2024-01-25T12:15:36;5.65;;;2.85;;
17761;SDS011;9005;48.838;10.112;2024-01-25T12:18:04;10.27;;;2.90;;
17761;SDS011;9005;48.838;10.112;2024-01-25T12:20:34;8.52;;;2.60;;
17761;SDS011;9005;48.838;10.112;2024-01-25T12:23:02;6.13;;;2.60;;
17761;SDS011;9005;48.838;10.112;2024-01-25T12:25:28;8.00;;;2.90;;
17761;SDS011;9005;48.838;10.112;2024-01-25T12:27:56;7.72;;;2.72;;
17761;SDS011;9005;48.838;10.112;2024-01-25T12:30:23;6.25;;;2.67;;
17761;SDS011;9005;48.838;10.112;2024-01-25T12:32:50;6.32;;;2.80;;
17761;SDS011;9005;48.838;10.112;2024-01-25T12:35:16;6.30;;;2.50;;
17761;SDS011;9005;48.838;10.112;2024-01-25T12:37:44;5.13;;;2.65;;
17761;SDS011;9005;48.838;10.112;2024-01-25T12:40:11;4.93;;;2.53;;
17761;SDS011;9005;48.838;10.112;2024-01-25T12:42:38;6.60;;;2.80;;
17761;SDS011;9005;48.838;10.112;2024-01-25T12:45:05;6.70;;;2.80;;
17761;SDS011;9005;48.838;10.112;2024-01-25T12:47:32;5.32;;;1.90;;
17761;SDS011;9005;48.838;10.112;2024-01-25T12:49:59;6.75;;;2.85;;
17761;SDS011;9005;48.838;10.112;2024-01-25T12:52:25;4.53;;;2.00;;
17761;SDS011;9005;48.838;10.112;2024-01-25T12:54:54;7.88;;;2.85;;
17761;SDS011;9005;48.838;10.112;2024-01-25T12:57:21;8.23;;;2.58;;
17761;SDS011;9005;48.838;10.112;2024-01-25T12:59:48;6.30;;;2.60;;
17761;SDS011;9005;48.838;10.112;2024-01-25T13:02:15;5.70;;;2.92;;
17761;SDS011;9005;48.838;10.112;2024-01-25T13:04:41;7.07;;;2.85;;
17761;SDS011;9005;48.838;10.112;2024-01-25T13:07:08;5.32;;;2.55;;
17761;SDS011;9005;48.838;10.112;2024-01-25T13:09:35;5.32;;;2.67;;
17761;SDS011;9005;48.838;10.112;2024-01-25T13:12:03;7.40;;;3.05;;
17761;SDS011;9005;48.838;10.112;2024-01-25T13:14:30;6.97;;;2.80;;
17761;SDS011;9005;48.838;10.112;2024-01-25T13:16:58;5.32;;;2.30;;
17761;SDS011;9005;48.838;10.112;2024-01-25T13:19:25;5.88;;;2.67;;
17761;SDS011;9005;48.838;10.112;2024-01-25T13:21:51;6.32;;;2.47;;
17761;SDS011;9005;48.838;10.112;2024-01-25T13:24:18;5.45;;;2.45;;
17761;SDS011;9005;48.838;10.112;2024-01-25T13:26:45;4.85;;;2.13;;
17761;SDS011;9005;48.838;10.112;2024-01-25T13:29:13;5.80;;;2.05;;
17761;SDS011;9005;48.838;10.112;2024-01-25T13:31:40;5.35;;;1.90;;
17761;SDS011;9005;48.838;10.112;2024-01-25T13:34:06;3.80;;;1.70;;
17761;SDS011;9005;48.838;10.112;2024-01-25T13:36:33;6.50;;;2.40;;
17761;SDS011;9005;48.838;10.112;2024-01-25T13:39:00;4.97;;;2.58;;
17761;SDS011;9005;48.838;10.112;2024-01-25T13:41:28;5.63;;;2.30;;
17761;SDS011;9005;48.838;10.112;2024-01-25T13:43:55;7.20;;;2.10;;
17761;SDS011;9005;48.838;10.112;2024-01-25T13:46:23;6.55;;;2.33;;
17761;SDS011;9005;48.838;10.112;2024-01-25T13:48:50;6.82;;;2.47;;
17761;SDS011;9005;48.838;10.112;2024-01-25T13:51:16;3.90;;;1.90;;
17761;SDS011;9005;48.838;10.112;2024-01-25T13:53:43;6.82;;;2.60;;
17761;SDS011;9005;48.838;10.112;2024-01-25T13:56:10;5.55;;;2.40;;
17761;SDS011;9005;48.838;10.112;2024-01-25T13:58:37;3.75;;;2.00;;
17761;SDS011;9005;48.838;10.112;2024-01-25T14:01:04;5.57;;;2.30;;
17761;SDS011;9005;48.838;10.112;2024-01-25T14:03:32;5.35;;;1.88;;
17761;SDS011;9005;48.838;10.112;2024-01-25T14:05:59;6.07;;;2.47;;
17761;SDS011;9005;48.838;10.112;2024-01-25T14:08:29;5.03;;;1.95;;
17761;SDS011;9005;48.838;10.112;2024-01-25T14:10:56;7.70;;;2.65;;
17761;SDS011;9005;48.838;10.112;2024-01-25T14:13:22;4.80;;;2.50;;
17761;SDS011;9005;48.838;10.112;2024-01-25T14:15:49;4.45;;;2.20;;
17761;SDS011;9005;48.838;10.112;2024-01-25T14:18:16;5.85;;;2.75;;
17761;SDS011;9005;48.838;10.112;2024-01-25T14:20:44;6.75;;;2.63;;
17761;SDS011;9005;48.838;10.112;2024-01-25T14:23:11;4.10;;;2.40;;
17761;SDS011;9005;48.838;10.112;2024-01-25T14:25:38;6.72;;;2.28;;
17761;SDS011;9005;48.838;10.112;2024-01-25T14:28:04;3.97;;;1.73;;
17761;SDS011;9005;48.838;10.112;2024-01-25T14:30:31;3.67;;;1.70;;
17761;SDS011;9005;48.838;10.112;2024-01-25T14:32:58;4.50;;;2.05;;
17761;SDS011;9005;48.838;10.112;2024-01-25T14:35:24;3.70;;;2.00;;
17761;SDS011;9005;48.838;10.112;2024-01-25T14:37:54;4.40;;;1.83;;
17761;SDS011;9005;48.838;10.112;2024-01-25T14:40:21;5.53;;;2.22;;
17761;SDS011;9005;48.838;10.112;2024-01-25T14:42:48;4.10;;;1.90;;
17761;SDS011;9005;48.838;10.112;2024-01-25T14:45:15;4.57;;;1.92;;
17761;SDS011;9005;48.838;10.112;2024-01-25T14:47:41;5.20;;;1.73;;